Time,TemperatureF,DewpointF,PressureIn,WindDirection,WindDirectionDegrees,WindSpeedMPH,WindSpeedGustMPH,Humidity,HourlyPrecipIn,Conditions,Clouds,dailyrainin,SoftwareType,DateUTC
2013-01-31 00:03:00,38.0,34.0,-100.00,West,266,16.0,24.0,85,0.00,,,-99.99,,2013-01-31 05:03:00,
2013-01-31 00:11:00,39.0,32.0,-100.00,West,278,11.0,24.0,82,0.00,,,-99.99,,2013-01-31 05:11:00,
2013-01-31 00:22:00,39.0,34.0,-100.00,WSW,256,13.0,24.0,82,0.00,,,-99.99,,2013-01-31 05:22:00,
2013-01-31 00:32:00,39.0,34.0,-100.00,WSW,256,13.0,24.0,82,0.00,,,-99.99,,2013-01-31 05:32:00,
2013-01-31 00:42:00,39.0,32.0,-100.00,West,269,12.0,24.0,81,1.14,,,-99.99,,2013-01-31 05:42:00,
2013-01-31 00:52:00,39.0,32.0,-100.00,West,269,12.0,24.0,81,1.14,,,-99.99,,2013-01-31 05:52:00,
2013-01-31 01:01:00,39.0,32.0,-100.00,West,269,12.0,24.0,81,1.14,,,-99.99,,2013-01-31 06:01:00,
2013-01-31 01:11:00,39.0,32.0,-100.00,West,269,12.0,24.0,81,1.14,,,-99.99,,2013-01-31 06:11:00,
2013-01-31 09:03:00,27.0,19.0,-100.00,WSW,244,14.0,34.0,72,0.00,,,-99.99,,2013-01-31 14:03:00,
2013-01-31 09:11:00,27.0,19.0,-100.00,WSW,238,14.0,34.0,69,2.83,,,-99.99,,2013-01-31 14:11:00,
2013-01-31 09:22:00,26.0,21.0,-100.00,West,264,15.0,34.0,75,9.06,,,-99.99,,2013-01-31 14:22:00,
2013-01-31 09:32:00,25.0,19.0,-100.00,West,272,16.0,34.0,75,1.14,,,-99.99,,2013-01-31 14:32:00,
2013-01-31 09:42:00,26.0,19.0,-100.00,WNW,282,14.0,34.0,75,0.00,,,-99.99,,2013-01-31 14:42:00,
2013-01-31 09:52:00,26.0,19.0,-100.00,WNW,300,17.0,34.0,71,0.00,,,-99.99,,2013-01-31 14:52:00,
2013-01-31 10:03:00,26.0,16.0,-100.00,West,278,17.0,34.0,59,0.00,,,-99.99,,2013-01-31 15:03:00,
2013-01-31 10:12:00,27.0,16.0,-100.00,WSW,238,18.0,34.0,59,0.00,,,-99.99,,2013-01-31 15:12:00,
2013-01-31 10:22:00,27.0,16.0,-100.00,West,271,16.0,34.0,60,0.00,,,-99.99,,2013-01-31 15:22:00,
2013-01-31 10:32:00,26.0,18.0,-100.00,West,272,14.0,34.0,64,0.00,,,-99.99,,2013-01-31 15:32:00,
2013-01-31 10:42:00,26.0,18.0,-100.00,WSW,244,14.0,34.0,67,2.83,,,-99.99,,2013-01-31 15:42:00,
2013-01-31 10:51:00,26.0,18.0,-100.00,West,273,16.0,34.0,68,1.14,,,-99.99,,2013-01-31 15:51:00,
2013-01-31 11:03:00,24.0,19.0,-100.00,WSW,248,13.0,34.0,81,4.53,,,-99.99,,2013-01-31 16:03:00,
2013-01-31 11:13:00,26.0,18.0,-100.00,WNW,295,13.0,34.0,68,0.00,,,-99.99,,2013-01-31 16:13:00,
2013-01-31 11:22:00,24.0,19.0,-100.00,West,268,12.0,34.0,80,12.48,,,-99.99,,2013-01-31 16:22:00,
2013-01-31 11:33:00,23.0,21.0,-100.00,WNW,289,14.0,34.0,88,-99.99,,,-99.99,,2013-01-31 16:33:00,
2013-01-31 11:42:00,24.0,23.0,-100.00,NW,314,13.0,34.0,90,-99.99,,,-99.99,,2013-01-31 16:42:00,
2013-01-31 11:52:00,24.0,23.0,-100.00,WNW,283,9.0,34.0,90,-99.99,,,-99.99,,2013-01-31 16:52:00,
2013-01-31 12:03:00,24.0,23.0,-100.00,NW,321,7.0,34.0,91,28.35,,,-99.99,,2013-01-31 17:03:00,
2013-01-31 12:13:00,23.0,21.0,-100.00,West,272,7.0,34.0,91,-99.99,,,-99.99,,2013-01-31 17:13:00,
2013-01-31 12:23:00,24.0,23.0,-100.00,West,268,7.0,34.0,91,9.06,,,-99.99,,2013-01-31 17:23:00,
2013-01-31 12:32:00,24.0,23.0,-100.00,West,265,11.0,34.0,89,2.83,,,-99.99,,2013-01-31 17:32:00,
2013-01-31 12:44:00,24.0,21.0,-100.00,WNW,283,12.0,34.0,82,0.00,,,-99.99,,2013-01-31 17:44:00,
2013-01-31 12:53:00,25.0,18.0,-100.00,West,272,14.0,34.0,71,1.14,,,-99.99,,2013-01-31 17:53:00,
2013-01-31 13:03:00,25.0,16.0,-100.00,West,271,15.0,34.0,67,1.14,,,-99.99,,2013-01-31 18:03:00,
2013-01-31 13:13:00,24.0,16.0,-100.00,WNW,289,17.0,34.0,68,1.14,,,-99.99,,2013-01-31 18:13:00,
2013-01-31 13:22:00,26.0,18.0,-100.00,West,269,17.0,34.0,68,1.14,,,-99.99,,2013-01-31 18:22:00,
2013-01-31 13:32:00,27.0,18.0,-100.00,WNW,282,13.0,34.0,68,0.00,,,-99.99,,2013-01-31 18:32:00,
2013-01-31 13:43:00,26.0,19.0,-100.00,West,276,17.0,34.0,73,4.53,,,-99.99,,2013-01-31 18:43:00,
2013-01-31 13:52:00,26.0,19.0,-100.00,WNW,303,16.0,34.0,72,0.00,,,-99.99,,2013-01-31 18:52:00,
2013-01-31 14:03:00,26.0,19.0,-100.00,West,268,14.0,34.0,71,1.14,,,-99.99,,2013-01-31 19:03:00,
2013-01-31 14:12:00,26.0,19.0,-100.00,West,268,14.0,34.0,71,1.14,,,-99.99,,2013-01-31 19:12:00,
2013-01-31 14:22:00,24.0,16.0,-100.00,WSW,248,12.0,34.0,69,0.00,,,-99.99,,2013-01-31 19:22:00,
2013-01-31 14:33:00,24.0,14.0,-100.00,West,279,15.0,34.0,64,0.00,,,-99.99,,2013-01-31 19:33:00,
2013-01-31 14:42:00,24.0,14.0,-100.00,WNW,283,15.0,34.0,63,1.14,,,-99.99,,2013-01-31 19:42:00,
2013-01-31 14:52:00,24.0,12.0,-100.00,WNW,282,17.0,34.0,59,0.00,,,-99.99,,2013-01-31 19:52:00,
2013-01-31 15:02:00,24.0,14.0,-100.00,West,273,14.0,34.0,60,0.00,,,-99.99,,2013-01-31 20:02:00,
2013-01-31 15:12:00,24.0,16.0,-100.00,West,272,16.0,34.0,68,7.36,,,-99.99,,2013-01-31 20:12:00,
2013-01-31 15:22:00,24.0,16.0,-100.00,WSW,251,13.0,34.0,69,1.14,,,-99.99,,2013-01-31 20:22:00,
2013-01-31 15:32:00,24.0,16.0,-100.00,West,275,13.0,34.0,66,0.00,,,-99.99,,2013-01-31 20:32:00,
2013-01-31 15:42:00,23.0,16.0,-100.00,WNW,282,13.0,34.0,69,0.00,,,-99.99,,2013-01-31 20:42:00,
2013-01-31 15:52:00,22.0,18.0,-100.00,SW,216,10.0,34.0,77,-99.99,,,-99.99,,2013-01-31 20:52:00,
2013-01-31 16:02:00,23.0,18.0,-100.00,WNW,283,10.0,34.0,78,1.14,,,-99.99,,2013-01-31 21:02:00,
2013-01-31 16:12:00,24.0,16.0,-100.00,West,268,11.0,34.0,67,1.14,,,-99.99,,2013-01-31 21:12:00,
2013-01-31 16:22:00,24.0,16.0,-100.00,West,273,13.0,34.0,67,0.00,,,-99.99,,2013-01-31 21:22:00,
2013-01-31 16:32:00,25.0,16.0,-100.00,WNW,295,9.0,34.0,64,0.00,,,-99.99,,2013-01-31 21:32:00,
2013-01-31 16:42:00,26.0,18.0,-100.00,West,280,12.0,34.0,68,0.00,,,-99.99,,2013-01-31 21:42:00,
2013-01-31 16:52:00,24.0,18.0,-100.00,West,269,11.0,34.0,76,10.79,,,-99.99,,2013-01-31 21:52:00,
2013-01-31 17:03:00,24.0,19.0,-100.00,West,273,8.0,34.0,81,14.17,,,-99.99,,2013-01-31 22:03:00,
2013-01-31 17:11:00,25.0,19.0,-100.00,West,275,12.0,34.0,77,0.00,,,-99.99,,2013-01-31 22:11:00,
2013-01-31 17:22:00,25.0,19.0,-100.00,SW,234,9.0,34.0,77,4.53,,,-99.99,,2013-01-31 22:22:00,
2013-01-31 17:33:00,26.0,21.0,-100.00,WNW,288,11.0,34.0,80,2.83,,,-99.99,,2013-01-31 22:33:00,
2013-01-31 17:42:00,25.0,21.0,-100.00,WNW,288,14.0,34.0,81,0.00,,,-99.99,,2013-01-31 22:42:00,
2013-01-31 17:51:00,24.0,21.0,-100.00,West,264,11.0,34.0,85,7.36,,,-99.99,,2013-01-31 22:51:00,
2013-01-31 18:03:00,25.0,21.0,-100.00,West,279,12.0,34.0,81,0.00,,,-99.99,,2013-01-31 23:03:00,
2013-01-31 18:12:00,26.0,21.0,-100.00,West,278,11.0,34.0,81,0.00,,,-99.99,,2013-01-31 23:12:00,
2013-01-31 18:22:00,25.0,21.0,-100.00,West,268,14.0,34.0,81,0.00,,,-99.99,,2013-01-31 23:22:00,
2013-01-31 18:32:00,25.0,21.0,-100.00,West,280,13.0,34.0,81,0.00,,,-99.99,,2013-01-31 23:32:00,
2013-01-31 18:42:00,27.0,21.0,-100.00,WNW,297,9.0,34.0,76,1.14,,,-99.99,,2013-01-31 23:42:00,
2013-01-31 18:52:00,22.0,19.0,-100.00,West,280,11.0,34.0,84,29.49,,,-99.99,,2013-01-31 23:52:00,
2013-01-31 19:02:00,25.0,21.0,-100.00,West,266,11.0,34.0,84,0.00,,,-99.99,,2013-02-01 00:02:00,
2013-01-31 19:11:00,26.0,21.0,-100.00,WNW,288,11.0,34.0,80,0.00,,,-99.99,,2013-02-01 00:11:00,
2013-01-31 19:22:00,26.0,21.0,-100.00,West,272,11.0,34.0,81,0.00,,,-99.99,,2013-02-01 00:22:00,
2013-01-31 19:32:00,24.0,19.0,-100.00,WNW,293,12.0,34.0,82,15.31,,,-99.99,,2013-02-01 00:32:00,
2013-01-31 19:42:00,24.0,21.0,-100.00,West,259,9.0,34.0,85,6.22,,,-99.99,,2013-02-01 00:42:00,
2013-01-31 19:51:00,26.0,25.0,-100.00,West,279,9.0,34.0,88,1.14,,,-99.99,,2013-02-01 00:51:00,
2013-01-31 20:01:00,23.0,21.0,-100.00,WSW,244,11.0,34.0,86,-99.99,,,-99.99,,2013-02-01 01:01:00,
2013-01-31 20:11:00,22.0,21.0,-100.00,West,275,9.0,34.0,89,21.54,,,-99.99,,2013-02-01 01:11:00,
2013-01-31 20:21:00,22.0,21.0,-100.00,NW,307,9.0,34.0,89,2.83,,,-99.99,,2013-02-01 01:21:00,
2013-01-31 20:32:00,23.0,21.0,-100.00,NW,321,9.0,34.0,90,18.70,,,-99.99,,2013-02-01 01:32:00,
2013-01-31 20:42:00,21.0,19.0,-100.00,West,271,11.0,34.0,90,-99.99,,,-99.99,,2013-02-01 01:42:00,
2013-01-31 20:52:00,22.0,21.0,-100.00,West,269,11.0,34.0,91,1.14,,,-99.99,,2013-02-01 01:52:00,
2013-01-31 21:02:00,22.0,21.0,-100.00,WSW,249,11.0,34.0,91,-99.99,,,-99.99,,2013-02-01 02:02:00,
2013-01-31 21:11:00,21.0,19.0,-100.00,WNW,286,11.0,34.0,91,-99.99,,,-99.99,,2013-02-01 02:11:00,
2013-01-31 21:21:00,21.0,19.0,-100.00,West,266,11.0,34.0,91,1.14,,,-99.99,,2013-02-01 02:21:00,
2013-01-31 21:32:00,23.0,21.0,-100.00,WNW,299,11.0,34.0,91,0.00,,,-99.99,,2013-02-01 02:32:00,
2013-01-31 21:42:00,20.0,18.0,-100.00,SW,235,11.0,34.0,88,-99.99,,,-99.99,,2013-02-01 02:42:00,
2013-01-31 21:52:00,21.0,19.0,-100.00,WNW,282,11.0,34.0,91,18.70,,,-99.99,,2013-02-01 02:52:00,
2013-01-31 22:02:00,20.0,18.0,-100.00,WNW,293,11.0,34.0,91,12.48,,,-99.99,,2013-02-01 03:02:00,
2013-01-31 22:12:00,22.0,21.0,-100.00,West,273,9.0,34.0,91,0.00,,,-99.99,,2013-02-01 03:12:00,
2013-01-31 22:21:00,21.0,19.0,-100.00,West,275,11.0,34.0,88,4.53,,,-99.99,,2013-02-01 03:21:00,
2013-01-31 22:33:00,21.0,18.0,-100.00,West,266,9.0,34.0,85,0.00,,,-99.99,,2013-02-01 03:33:00,
2013-01-31 22:42:00,22.0,18.0,-100.00,SW,230,10.0,34.0,82,0.00,,,-99.99,,2013-02-01 03:42:00,
2013-01-31 22:51:00,20.0,16.0,-100.00,WNW,282,9.0,34.0,82,4.53,,,-99.99,,2013-02-01 03:51:00,
2013-01-31 23:02:00,22.0,18.0,-100.00,West,276,7.0,34.0,81,0.00,,,-99.99,,2013-02-01 04:02:00,
2013-01-31 23:11:00,23.0,18.0,-100.00,West,266,6.0,34.0,76,0.00,,,-99.99,,2013-02-01 04:11:00,
2013-01-31 23:21:00,23.0,18.0,-100.00,NW,304,7.0,7.0,73,2.83,,,-99.99,,2013-02-01 04:21:00,
2013-01-31 23:32:00,19.0,16.0,-100.00,WSW,255,9.0,12.0,85,28.35,,,-99.99,,2013-02-01 04:32:00,
2013-01-31 23:42:00,20.0,18.0,-100.00,West,259,10.0,14.0,88,6.22,,,-99.99,,2013-02-01 04:42:00,
2013-01-31 23:51:00,20.0,18.0,-100.00,WNW,288,9.0,14.0,86,0.00,,,-99.99,,2013-02-01 04:51:00,